Time,TemperatureF,DewpointF,PressureIn,WindDirection,WindDirectionDegrees,WindSpeedMPH,WindSpeedGustMPH,Humidity,HourlyPrecipIn,Conditions,Clouds,dailyrainin,SolarRadiationWatts/m^2,SoftwareType,DateUTC
2013-05-09 00:02:00,56.8,54.5,30.07,NW,317,0.4,2.3,92,0.01,RA,,0.00,0.0,WeatherDisplay:10.37,2013-05-09 05:02:00,
2013-05-09 00:07:00,56.8,54.5,30.07,NNE,23,0.3,1.2,92,0.01,RA,,0.00,0.0,WeatherDisplay:10.37,2013-05-09 05:07:00,
2013-05-09 00:12:00,56.8,54.5,30.07,NNW,348,0.9,3.0,92,0.01,OVC,,0.00,0.0,WeatherDisplay:10.37,2013-05-09 05:12:00,
2013-05-09 00:17:00,56.7,54.4,30.07,NNE,19,1.5,3.5,92,0.01,OVC,,0.00,0.0,WeatherDisplay:10.37,2013-05-09 05:17:00,
2013-05-09 00:22:00,56.6,54.3,30.07,NNW,336,0.3,3.5,92,0.01,OVC,,0.00,0.0,WeatherDisplay:10.37,2013-05-09 05:22:00,
2013-05-09 00:27:00,56.6,54.3,30.07,North,5,0.3,2.3,92,0.01,OVC,,0.00,0.0,WeatherDisplay:10.37,2013-05-09 05:27:00,
2013-05-09 00:32:00,56.7,54.4,30.07,North,9,1.7,3.5,92,0.01,OVC,,0.00,0.0,WeatherDisplay:10.37,2013-05-09 05:32:00,
2013-05-09 00:37:00,56.6,54.3,30.06,NNW,344,1.4,3.5,92,0.00,OVC,,0.00,0.0,WeatherDisplay:10.37,2013-05-09 05:37:00,
2013-05-09 00:42:00,56.6,54.3,30.06,North,355,0.2,2.3,92,0.00,OVC,,0.00,0.0,WeatherDisplay:10.37,2013-05-09 05:42:00,
2013-05-09 00:47:00,56.5,54.2,30.06,North,355,0.0,0.0,92,0.00,OVC,,0.00,0.0,WeatherDisplay:10.37,2013-05-09 05:47:00,
2013-05-09 00:52:00,56.4,54.4,30.06,NNW,329,0.2,2.3,93,0.00,OVC,,0.00,0.0,WeatherDisplay:10.37,2013-05-09 05:52:00,
2013-05-09 00:57:00,56.4,54.4,30.06,NNW,331,1.3,3.5,93,0.00,OVC,,0.00,0.0,WeatherDisplay:10.37,2013-05-09 05:57:00,
2013-05-09 01:02:00,56.5,54.5,30.06,NW,320,0.2,2.3,93,0.00,OVC,,0.00,0.0,WeatherDisplay:10.37,2013-05-09 06:02:00,
2013-05-09 01:07:00,56.4,54.4,30.06,NW,321,0.8,3.0,93,0.00,OVC,,0.00,0.0,WeatherDisplay:10.37,2013-05-09 06:07:00,
2013-05-09 01:12:00,56.4,54.4,30.06,NW,321,0.5,2.3,93,0.00,OVC,,0.00,0.0,WeatherDisplay:10.37,2013-05-09 06:12:00,
2013-05-09 01:17:00,56.3,54.3,30.06,NW,321,0.2,1.0,93,0.00,OVC,,0.00,0.0,WeatherDisplay:10.37,2013-05-09 06:17:00,
2013-05-09 01:22:00,56.3,54.3,30.06,NW,321,0.8,2.3,93,0.00,OVC,,0.00,0.0,WeatherDisplay:10.37,2013-05-09 06:22:00,
2013-05-09 01:27:00,56.4,54.4,30.06,NW,322,0.1,2.3,93,0.00,OVC,,0.00,0.0,WeatherDisplay:10.37,2013-05-09 06:27:00,
2013-05-09 01:32:00,56.6,54.3,30.06,NW,322,1.2,2.0,92,0.00,OVC,,0.00,0.0,WeatherDisplay:10.37,2013-05-09 06:32:00,
2013-05-09 01:37:00,56.6,54.3,30.06,NW,323,0.5,2.3,92,0.00,OVC,,0.00,0.0,WeatherDisplay:10.37,2013-05-09 06:37:00,
2013-05-09 01:42:00,56.5,54.2,30.06,NW,324,0.4,1.2,92,0.00,OVC,,0.00,0.0,WeatherDisplay:10.37,2013-05-09 06:42:00,
2013-05-09 01:47:00,56.4,54.1,30.06,NNW,327,1.0,3.0,92,0.00,OVC,,0.00,0.0,WeatherDisplay:10.37,2013-05-09 06:47:00,
2013-05-09 01:52:00,56.4,54.1,30.06,North,350,2.2,3.5,92,0.00,OVC,,0.00,0.0,WeatherDisplay:10.37,2013-05-09 06:52:00,
2013-05-09 01:57:00,56.3,54.0,30.05,North,355,0.1,3.5,92,0.00,OVC,,0.00,0.0,WeatherDisplay:10.37,2013-05-09 06:57:00,
2013-05-09 02:02:00,56.3,54.0,30.05,NNW,348,1.0,2.3,92,0.00,-RA,,0.00,0.0,WeatherDisplay:10.37,2013-05-09 07:02:00,
2013-05-09 02:07:00,56.6,54.0,30.05,North,355,0.6,3.5,91,0.00,-RA,,0.00,0.0,WeatherDisplay:10.37,2013-05-09 07:07:00,
2013-05-09 02:12:00,56.7,54.1,30.05,NNE,13,0.0,1.2,91,0.00,-RA,,0.00,0.0,WeatherDisplay:10.37,2013-05-09 07:12:00,
2013-05-09 02:17:00,56.7,54.1,30.05,North,355,0.6,2.0,91,0.00,-RA,,0.00,0.0,WeatherDisplay:10.37,2013-05-09 07:17:00,
2013-05-09 02:22:00,56.7,53.8,30.05,NNW,338,0.9,3.5,90,0.00,-RA,,0.00,0.0,WeatherDisplay:10.37,2013-05-09 07:22:00,
2013-05-09 02:27:00,56.8,53.9,30.05,North,355,1.1,3.5,90,0.00,-RA,,0.00,0.0,WeatherDisplay:10.37,2013-05-09 07:27:00,
2013-05-09 02:32:00,56.9,54.0,30.05,North,5,2.3,4.0,90,0.00,-RA,,0.00,0.0,WeatherDisplay:10.37,2013-05-09 07:32:00,
2013-05-09 02:37:00,56.9,54.0,30.05,NNE,15,0.9,3.5,90,0.00,-RA,,0.00,0.0,WeatherDisplay:10.37,2013-05-09 07:37:00,
2013-05-09 02:42:00,56.7,53.8,30.05,NNW,340,0.4,2.3,90,0.00,-RA,,0.00,0.0,WeatherDisplay:10.37,2013-05-09 07:42:00,
2013-05-09 02:47:00,56.6,54.0,30.05,North,5,0.2,2.3,91,0.00,-RA,,0.00,0.0,WeatherDisplay:10.37,2013-05-09 07:47:00,
2013-05-09 02:52:00,56.5,53.9,30.05,North,5,1.0,3.0,91,0.00,-RA,,0.00,0.0,WeatherDisplay:10.37,2013-05-09 07:52:00,
2013-05-09 02:57:00,56.4,53.8,30.05,NNW,333,0.3,2.0,91,0.00,-RA,,0.00,0.0,WeatherDisplay:10.37,2013-05-09 07:57:00,
2013-05-09 03:02:00,56.3,53.7,30.05,NNW,342,0.8,2.0,91,0.00,OVC,,0.00,0.0,WeatherDisplay:10.37,2013-05-09 08:02:00,
2013-05-09 03:07:00,56.1,53.8,30.05,North,350,0.9,2.3,92,0.00,OVC,,0.00,0.0,WeatherDisplay:10.37,2013-05-09 08:07:00,
2013-05-09 03:12:00,56.0,53.7,30.05,NW,311,1.0,3.5,92,0.00,OVC,,0.00,0.0,WeatherDisplay:10.37,2013-05-09 08:12:00,
2013-05-09 03:17:00,55.9,53.6,30.05,North,355,2.5,5.0,92,0.00,OVC,,0.00,0.0,WeatherDisplay:10.37,2013-05-09 08:17:00,
2013-05-09 03:22:00,55.9,53.9,30.04,North,360,1.2,4.0,93,0.00,OVC,,0.00,0.0,WeatherDisplay:10.37,2013-05-09 08:22:00,
2013-05-09 03:27:00,55.9,53.9,30.04,NNW,329,0.7,3.5,93,0.00,OVC,,0.00,0.0,WeatherDisplay:10.37,2013-05-09 08:27:00,
2013-05-09 03:32:00,55.9,53.9,30.04,NNW,338,1.0,3.0,93,0.00,OVC,,0.00,0.0,WeatherDisplay:10.37,2013-05-09 08:32:00,
2013-05-09 03:37:00,56.0,54.0,30.04,NW,325,2.0,4.0,93,0.00,OVC,,0.00,0.0,WeatherDisplay:10.37,2013-05-09 08:37:00,
2013-05-09 03:42:00,55.9,53.9,30.04,NNW,344,2.1,5.8,93,0.00,OVC,,0.00,0.0,WeatherDisplay:10.37,2013-05-09 08:42:00,
2013-05-09 03:47:00,55.9,53.9,30.04,NW,323,3.0,5.0,93,0.00,OVC,,0.00,0.0,WeatherDisplay:10.37,2013-05-09 08:47:00,
2013-05-09 03:52:00,55.9,53.9,30.04,North,355,1.6,5.0,93,0.00,OVC,,0.00,0.0,WeatherDisplay:10.37,2013-05-09 08:52:00,
2013-05-09 03:57:00,56.0,54.0,30.04,NNW,340,0.8,3.5,93,0.00,OVC,,0.00,0.0,WeatherDisplay:10.37,2013-05-09 08:57:00,
2013-05-09 04:02:00,56.0,54.0,30.03,NNW,346,1.7,4.0,93,0.00,OVC,,0.00,0.0,WeatherDisplay:10.37,2013-05-09 09:02:00,
2013-05-09 04:07:00,56.2,54.2,30.03,NNW,331,2.2,4.0,93,0.00,OVC,,0.00,0.0,WeatherDisplay:10.37,2013-05-09 09:07:00,
2013-05-09 04:12:00,56.2,53.9,30.03,NW,319,1.4,3.5,92,0.00,OVC,,0.00,0.0,WeatherDisplay:10.37,2013-05-09 09:12:00,
2013-05-09 04:17:00,56.3,54.0,30.04,North,360,3.0,6.0,92,0.00,OVC,,0.00,0.0,WeatherDisplay:10.37,2013-05-09 09:17:00,
2013-05-09 04:22:00,56.4,54.1,30.04,North,5,1.3,4.0,92,0.00,OVC,,0.00,0.0,WeatherDisplay:10.37,2013-05-09 09:22:00,
2013-05-09 04:27:00,56.4,54.1,30.03,NNW,327,1.2,4.0,92,0.00,OVC,,0.00,0.0,WeatherDisplay:10.37,2013-05-09 09:27:00,
2013-05-09 04:32:00,56.3,54.0,30.04,NNW,336,2.4,4.0,92,0.00,OVC,,0.00,0.0,WeatherDisplay:10.37,2013-05-09 09:32:00,
2013-05-09 04:37:00,56.2,53.9,30.04,North,350,2.6,5.8,92,0.00,OVC,,0.00,0.0,WeatherDisplay:10.37,2013-05-09 09:37:00,
2013-05-09 04:42:00,56.2,53.9,30.04,NNE,19,1.6,4.0,92,0.01,RA,,0.01,0.0,WeatherDisplay:10.37,2013-05-09 09:42:00,
2013-05-09 04:47:00,55.9,53.6,30.04,NNW,328,2.3,4.0,92,0.01,RA,,0.01,0.0,WeatherDisplay:10.37,2013-05-09 09:47:00,
2013-05-09 04:52:00,55.9,53.6,30.04,North,10,0.9,3.5,92,0.01,OVC,,0.01,0.0,WeatherDisplay:10.37,2013-05-09 09:52:00,
2013-05-09 04:57:00,55.9,53.9,30.04,NNW,343,1.5,4.6,93,0.01,OVC,,0.01,0.0,WeatherDisplay:10.37,2013-05-09 09:57:00,
2013-05-09 05:02:00,55.8,53.8,30.04,North,5,1.9,4.0,93,0.01,OVC,,0.01,0.0,WeatherDisplay:10.37,2013-05-09 10:02:00,
2013-05-09 05:07:00,55.7,53.7,30.04,NNE,13,2.2,4.0,93,0.01,OVC,,0.01,0.0,WeatherDisplay:10.37,2013-05-09 10:07:00,
2013-05-09 05:12:00,55.5,53.5,30.04,North,9,2.5,5.0,93,0.01,OVC,,0.01,0.0,WeatherDisplay:10.37,2013-05-09 10:12:00,
2013-05-09 05:17:00,55.5,53.5,30.04,NNW,338,2.1,5.0,93,0.01,OVC,,0.01,0.0,WeatherDisplay:10.37,2013-05-09 10:17:00,
2013-05-09 05:22:00,55.5,53.5,30.04,North,355,3.4,5.8,93,0.01,OVC,,0.01,0.0,WeatherDisplay:10.37,2013-05-09 10:22:00,
2013-05-09 05:27:00,55.5,53.5,30.04,NNW,327,1.2,3.5,93,0.01,OVC,,0.01,0.0,WeatherDisplay:10.37,2013-05-09 10:27:00,
2013-05-09 05:32:00,55.5,53.5,30.04,North,355,1.7,3.5,93,0.01,OVC,,0.01,0.0,WeatherDisplay:10.37,2013-05-09 10:32:00,
2013-05-09 05:37:00,55.4,53.7,30.05,NNE,18,2.0,4.6,94,0.01,OVC,,0.01,0.0,WeatherDisplay:10.37,2013-05-09 10:37:00,
2013-05-09 05:42:00,55.4,53.7,30.05,North,5,2.6,3.5,94,0.00,OVC,,0.01,0.0,WeatherDisplay:10.37,2013-05-09 10:42:00,
2013-05-09 05:47:00,55.3,53.6,30.05,NNW,332,3.4,6.0,94,0.01,RA,,0.02,0.0,WeatherDisplay:10.37,2013-05-09 10:47:00,
2013-05-09 05:52:00,55.3,53.6,30.05,NW,314,1.4,6.9,94,0.01,RA,,0.02,0.0,WeatherDisplay:10.37,2013-05-09 10:52:00,
2013-05-09 05:57:00,55.2,53.5,30.05,NNW,343,1.1,4.6,94,0.01,OVC,,0.02,0.0,WeatherDisplay:10.37,2013-05-09 10:57:00,
2013-05-09 06:02:00,55.1,53.4,30.05,NW,322,2.2,5.0,94,0.01,OVC,,0.02,0.0,WeatherDisplay:10.37,2013-05-09 11:02:00,
2013-05-09 06:07:00,55.1,53.4,30.05,NNE,17,2.4,5.8,94,0.01,OVC,,0.02,0.0,WeatherDisplay:10.37,2013-05-09 11:07:00,
2013-05-09 06:12:00,55.0,53.3,30.05,NNW,333,2.9,7.0,94,0.01,OVC,,0.02,0.0,WeatherDisplay:10.37,2013-05-09 11:12:00,
2013-05-09 06:17:00,54.9,53.2,30.05,NNW,338,2.1,4.6,94,0.02,RA,,0.03,0.0,WeatherDisplay:10.37,2013-05-09 11:17:00,
2013-05-09 06:22:00,54.8,53.1,30.05,NNW,339,2.3,5.0,94,0.02,RA,,0.03,0.0,WeatherDisplay:10.37,2013-05-09 11:22:00,
2013-05-09 06:27:00,54.8,53.1,30.05,NNW,345,3.6,6.0,94,0.02,OVC,,0.03,0.0,WeatherDisplay:10.37,2013-05-09 11:27:00,
2013-05-09 06:32:00,54.8,53.1,30.05,NNW,344,1.2,5.8,94,0.03,RA,,0.04,0.0,WeatherDisplay:10.37,2013-05-09 11:32:00,
2013-05-09 06:37:00,54.7,53.0,30.05,NNW,332,1.1,4.0,94,0.03,RA,,0.04,0.0,WeatherDisplay:10.37,2013-05-09 11:37:00,
2013-05-09 06:42:00,54.6,52.9,30.06,NW,326,3.2,6.0,94,0.03,OVC,,0.04,0.0,WeatherDisplay:10.37,2013-05-09 11:42:00,
2013-05-09 06:47:00,54.6,52.9,30.06,NNW,329,2.5,5.0,94,0.02,OVC,,0.04,0.0,WeatherDisplay:10.37,2013-05-09 11:47:00,
2013-05-09 06:52:00,54.6,52.9,30.06,NW,319,3.4,8.1,94,0.02,OVC,,0.04,0.0,WeatherDisplay:10.37,2013-05-09 11:52:00,
2013-05-09 06:57:00,54.5,52.8,30.06,NNE,31,2.1,5.0,94,0.02,OVC,,0.04,0.0,WeatherDisplay:10.37,2013-05-09 11:57:00,
2013-05-09 07:02:00,54.5,53.1,30.06,NNW,327,2.4,5.0,95,0.02,OVC,,0.04,0.0,WeatherDisplay:10.37,2013-05-09 12:02:00,
2013-05-09 07:07:00,54.4,53.0,30.06,NNW,331,1.6,4.0,95,0.02,OVC,,0.04,0.0,WeatherDisplay:10.37,2013-05-09 12:07:00,
2013-05-09 07:12:00,54.3,52.9,30.06,North,5,1.7,3.5,95,0.03,RA,,0.05,0.0,WeatherDisplay:10.37,2013-05-09 12:12:00,
2013-05-09 07:17:00,54.3,52.9,30.06,NNE,32,2.8,6.0,95,0.02,RA,,0.05,0.0,WeatherDisplay:10.37,2013-05-09 12:17:00,
2013-05-09 07:22:00,54.3,52.9,30.06,NNW,331,1.3,4.0,95,0.02,OVC,,0.05,0.0,WeatherDisplay:10.37,2013-05-09 12:22:00,
2013-05-09 07:27:00,54.3,52.9,30.06,North,355,0.6,4.6,95,0.02,OVC,,0.05,5.0,WeatherDisplay:10.37,2013-05-09 12:27:00,
2013-05-09 07:32:00,54.3,52.9,30.06,NNW,344,2.2,6.0,95,0.02,RA,,0.06,5.0,WeatherDisplay:10.37,2013-05-09 12:32:00,
2013-05-09 07:37:00,54.2,52.8,30.06,NNW,338,1.6,5.0,95,0.02,RA,,0.06,5.0,WeatherDisplay:10.37,2013-05-09 12:37:00,
2013-05-09 07:42:00,54.2,52.8,30.06,NNW,347,1.5,4.6,95,0.03,RA,,0.07,7.0,WeatherDisplay:10.37,2013-05-09 12:42:00,
2013-05-09 07:47:00,54.2,52.8,30.07,NNW,336,3.4,6.0,95,0.03,RA,,0.07,7.0,WeatherDisplay:10.37,2013-05-09 12:47:00,
2013-05-09 07:52:00,54.2,52.8,30.07,NNW,335,1.4,3.5,95,0.03,OVC,,0.07,9.0,WeatherDisplay:10.37,2013-05-09 12:52:00,
2013-05-09 07:57:00,54.2,52.8,30.07,NW,326,2.9,6.0,95,0.03,OVC,,0.07,11.0,WeatherDisplay:10.37,2013-05-09 12:57:00,
2013-05-09 08:02:00,54.2,52.8,30.07,North,351,2.9,5.0,95,0.03,OVC,,0.07,12.0,WeatherDisplay:10.37,2013-05-09 13:02:00,
2013-05-09 08:07:00,54.1,52.7,30.07,NNW,338,3.1,8.1,95,0.03,OVC,,0.08,18.0,WeatherDisplay:10.37,2013-05-09 13:07:00,
2013-05-09 08:12:00,54.1,52.7,30.07,NNE,17,2.7,6.0,95,0.03,RA,,0.08,19.0,WeatherDisplay:10.37,2013-05-09 13:12:00,
2013-05-09 08:17:00,54.0,52.6,30.07,North,350,1.4,4.6,95,0.03,RA,,0.08,23.0,WeatherDisplay:10.37,2013-05-09 13:17:00,
2013-05-09 08:22:00,54.0,52.6,30.07,NNE,15,2.0,6.9,95,0.03,OVC,,0.08,28.0,WeatherDisplay:10.37,2013-05-09 13:22:00,
2013-05-09 08:27:00,54.0,52.6,30.07,NW,321,1.8,5.0,95,0.03,OVC,,0.08,32.0,WeatherDisplay:10.37,2013-05-09 13:27:00,
2013-05-09 08:32:00,54.1,52.7,30.08,NNE,19,2.1,5.0,95,0.02,OVC,,0.08,35.0,WeatherDisplay:10.37,2013-05-09 13:32:00,
2013-05-09 08:37:00,54.1,52.7,30.08,North,360,1.5,5.0,95,0.02,OVC,,0.08,35.0,WeatherDisplay:10.37,2013-05-09 13:37:00,
2013-05-09 08:42:00,54.1,52.7,30.08,North,355,3.2,5.0,95,0.01,OVC,,0.08,37.0,WeatherDisplay:10.37,2013-05-09 13:42:00,
2013-05-09 08:47:00,54.2,52.8,30.08,NNE,15,1.3,4.6,95,0.01,OVC,,0.08,33.0,WeatherDisplay:10.37,2013-05-09 13:47:00,
2013-05-09 08:54:00,54.1,52.7,30.07,North,355,1.2,3.5,95,0.01,RA,,0.08,40.0,WeatherDisplay:10.37,2013-05-09 13:54:00,
2013-05-09 08:59:00,54.1,52.7,30.07,NNW,333,1.1,3.5,95,0.01,RA,,0.08,49.0,WeatherDisplay:10.37,2013-05-09 13:59:00,
2013-05-09 09:04:00,54.1,52.7,30.07,NW,324,2.1,4.0,95,0.01,OVC,,0.08,47.0,WeatherDisplay:10.37,2013-05-09 14:04:00,
2013-05-09 09:09:00,54.1,52.7,30.07,North,351,2.8,4.0,95,0.01,OVC,,0.08,51.0,WeatherDisplay:10.37,2013-05-09 14:09:00,
2013-05-09 09:14:00,54.0,52.6,30.08,NNW,346,2.5,7.0,95,0.00,OVC,,0.08,47.0,WeatherDisplay:10.37,2013-05-09 14:14:00,
2013-05-09 09:19:00,54.0,52.6,30.08,NNW,331,1.4,3.5,95,0.00,OVC,,0.08,42.0,WeatherDisplay:10.37,2013-05-09 14:19:00,
2013-05-09 09:24:00,53.9,52.5,30.08,North,11,2.5,5.0,95,0.00,OVC,,0.08,40.0,WeatherDisplay:10.37,2013-05-09 14:24:00,
2013-05-09 09:29:00,53.9,52.5,30.08,NNW,336,2.0,4.0,95,0.00,OVC,,0.08,37.0,WeatherDisplay:10.37,2013-05-09 14:29:00,
2013-05-09 09:34:00,53.8,52.4,30.08,North,355,4.0,8.1,95,0.00,OVC,,0.08,51.0,WeatherDisplay:10.37,2013-05-09 14:34:00,
2013-05-09 09:39:00,53.7,52.3,30.08,North,11,1.8,4.0,95,0.00,OVC,,0.08,53.0,WeatherDisplay:10.37,2013-05-09 14:39:00,
2013-05-09 09:44:00,53.6,51.9,30.08,NE,40,4.1,7.0,94,0.00,OVC,,0.08,63.0,WeatherDisplay:10.37,2013-05-09 14:44:00,
2013-05-09 09:49:00,53.5,51.8,30.08,North,360,6.8,10.0,94,0.00,OVC,,0.08,70.0,WeatherDisplay:10.37,2013-05-09 14:49:00,
2013-05-09 09:54:00,53.5,51.8,30.08,NNE,17,3.4,8.1,94,0.00,OVC,,0.08,60.0,WeatherDisplay:10.37,2013-05-09 14:54:00,
2013-05-09 09:59:00,53.5,52.1,30.08,North,5,3.0,5.0,95,0.00,OVC,,0.08,62.0,WeatherDisplay:10.37,2013-05-09 14:59:00,
2013-05-09 10:04:00,53.6,52.2,30.09,NNW,329,3.2,5.0,95,0.00,OVC,,0.08,51.0,WeatherDisplay:10.37,2013-05-09 15:04:00,
2013-05-09 10:09:00,53.7,52.3,30.09,NNE,12,3.1,5.0,95,0.00,OVC,,0.08,40.0,WeatherDisplay:10.37,2013-05-09 15:09:00,
2013-05-09 10:14:00,53.6,52.2,30.09,NNW,330,5.5,9.2,95,0.00,OVC,,0.08,74.0,WeatherDisplay:10.37,2013-05-09 15:14:00,
2013-05-09 10:19:00,53.3,51.9,30.09,North,350,2.5,8.1,95,0.01,RA,,0.09,81.0,WeatherDisplay:10.37,2013-05-09 15:19:00,
2013-05-09 10:24:00,53.1,51.7,30.09,NNE,19,3.5,7.0,95,0.01,RA,,0.09,74.0,WeatherDisplay:10.37,2013-05-09 15:24:00,
2013-05-09 10:29:00,53.0,51.6,30.09,NNE,20,3.9,10.4,95,0.01,OVC,,0.09,79.0,WeatherDisplay:10.37,2013-05-09 15:29:00,
2013-05-09 10:34:00,52.9,51.5,30.09,NNW,328,3.4,8.0,95,0.02,RA,,0.10,105.0,WeatherDisplay:10.37,2013-05-09 15:34:00,
2013-05-09 10:39:00,53.0,51.6,30.09,North,355,2.1,4.6,95,0.02,RA,,0.10,90.0,WeatherDisplay:10.37,2013-05-09 15:39:00,
2013-05-09 10:44:00,53.0,51.6,30.09,NNW,346,2.1,4.0,95,0.02,OVC,,0.11,84.0,WeatherDisplay:10.37,2013-05-09 15:44:00,
2013-05-09 10:49:00,53.1,52.0,30.09,NE,36,4.8,8.0,96,0.03,RA,,0.11,107.0,WeatherDisplay:10.37,2013-05-09 15:49:00,
2013-05-09 10:54:00,53.0,51.6,30.10,NNW,336,3.9,8.1,95,0.03,RA,,0.11,118.0,WeatherDisplay:10.37,2013-05-09 15:54:00,
2013-05-09 10:59:00,53.0,51.6,30.10,North,355,3.3,6.9,95,0.03,OVC,,0.11,97.0,WeatherDisplay:10.37,2013-05-09 15:59:00,
2013-05-09 11:04:00,53.1,51.7,30.10,NNE,25,5.1,9.2,95,0.03,OVC,,0.11,104.0,WeatherDisplay:10.37,2013-05-09 16:04:00,
2013-05-09 11:09:00,52.9,51.5,30.10,NNE,24,3.8,8.1,95,0.04,RA,,0.12,98.0,WeatherDisplay:10.37,2013-05-09 16:09:00,
2013-05-09 11:14:00,52.8,51.4,30.10,NE,46,4.5,11.0,95,0.04,RA,,0.12,65.0,WeatherDisplay:10.37,2013-05-09 16:14:00,
2013-05-09 11:19:00,52.7,51.3,30.10,North,351,6.7,9.2,95,0.03,OVC,,0.12,63.0,WeatherDisplay:10.37,2013-05-09 16:19:00,
2013-05-09 11:24:00,52.5,51.1,30.10,North,355,2.0,10.4,95,0.04,RA,,0.13,62.0,WeatherDisplay:10.37,2013-05-09 16:24:00,
2013-05-09 11:29:00,52.4,51.0,30.10,NNW,341,3.6,7.0,95,0.04,RA,,0.13,44.0,WeatherDisplay:10.37,2013-05-09 16:29:00,
2013-05-09 11:34:00,52.3,50.9,30.11,NE,43,7.7,15.0,95,0.03,OVC,,0.13,83.0,WeatherDisplay:10.37,2013-05-09 16:34:00,
2013-05-09 11:39:00,51.7,50.3,30.11,NNE,24,3.0,7.0,95,0.03,OVC,,0.14,65.0,WeatherDisplay:10.37,2013-05-09 16:39:00,
2013-05-09 11:44:00,51.6,49.9,30.11,NNE,24,5.8,9.2,94,0.04,RA,,0.14,51.0,WeatherDisplay:10.37,2013-05-09 16:44:00,
2013-05-09 11:49:00,51.2,49.5,30.11,North,349,4.3,7.0,94,0.04,RA,,0.15,67.0,WeatherDisplay:10.37,2013-05-09 16:49:00,
2013-05-09 11:54:00,51.0,49.3,30.11,North,11,5.1,8.1,94,0.04,RA,,0.15,60.0,WeatherDisplay:10.37,2013-05-09 16:54:00,
2013-05-09 11:59:00,50.9,49.2,30.11,NNE,32,3.6,7.0,94,0.04,OVC,,0.15,56.0,WeatherDisplay:10.37,2013-05-09 16:59:00,
2013-05-09 12:04:00,50.8,49.4,30.11,North,351,0.6,2.3,95,0.04,OVC,,0.15,74.0,WeatherDisplay:10.37,2013-05-09 17:04:00,
2013-05-09 12:09:00,50.6,48.9,30.11,ENE,71,6.7,9.0,94,0.03,-RA,,0.15,93.0,WeatherDisplay:10.37,2013-05-09 17:09:00,
2013-05-09 12:14:00,50.5,48.8,30.12,NE,38,3.5,9.0,94,0.04,-RA,,0.16,121.0,WeatherDisplay:10.37,2013-05-09 17:14:00,
2013-05-09 12:19:00,50.5,48.8,30.12,North,355,2.0,6.9,94,0.04,-RA,,0.16,123.0,WeatherDisplay:10.37,2013-05-09 17:19:00,
2013-05-09 12:24:00,50.5,48.8,30.12,North,5,1.4,6.9,94,0.03,-RA,,0.16,127.0,WeatherDisplay:10.37,2013-05-09 17:24:00,
2013-05-09 12:29:00,50.7,49.0,30.12,NNE,32,2.8,5.0,94,0.03,-RA,,0.16,107.0,WeatherDisplay:10.37,2013-05-09 17:29:00,
2013-05-09 12:34:00,50.6,48.9,30.12,NNE,19,5.2,10.0,94,0.03,-RA,,0.16,95.0,WeatherDisplay:10.37,2013-05-09 17:34:00,
2013-05-09 12:39:00,50.6,48.7,30.12,NW,319,5.0,9.2,93,0.03,-RA,,0.16,114.0,WeatherDisplay:10.37,2013-05-09 17:39:00,
2013-05-09 12:44:00,50.5,48.6,30.12,NNE,16,7.6,12.0,93,0.02,-RA,,0.16,174.0,WeatherDisplay:10.37,2013-05-09 17:44:00,
2013-05-09 12:49:00,50.6,48.7,30.12,NNE,22,5.2,8.1,93,0.01,-RA,,0.16,155.0,WeatherDisplay:10.37,2013-05-09 17:49:00,
2013-05-09 12:54:00,50.7,48.7,30.12,East,91,4.5,9.2,93,0.01,-RA,,0.16,153.0,WeatherDisplay:10.37,2013-05-09 17:54:00,
2013-05-09 12:59:00,50.7,48.5,30.12,NNE,12,3.3,8.1,92,0.01,-RA,,0.16,155.0,WeatherDisplay:10.37,2013-05-09 17:59:00,
2013-05-09 13:04:00,50.8,48.3,30.12,NE,41,3.5,12.7,91,0.01,-RA,,0.16,190.0,WeatherDisplay:10.37,2013-05-09 18:04:00,
2013-05-09 13:09:00,50.8,48.3,30.12,NE,41,5.8,8.0,91,0.01,-RA,,0.16,162.0,WeatherDisplay:10.37,2013-05-09 18:09:00,
2013-05-09 13:14:00,50.8,48.0,30.12,NE,36,6.5,11.5,90,0.00,-RA,,0.16,179.0,WeatherDisplay:10.37,2013-05-09 18:14:00,
2013-05-09 13:19:00,51.0,48.2,30.12,ENE,72,9.5,14.0,90,0.00,-RA,,0.16,200.0,WeatherDisplay:10.37,2013-05-09 18:19:00,
2013-05-09 13:24:00,51.2,48.7,30.12,NNE,28,4.7,7.0,91,0.00,-RA,,0.16,188.0,WeatherDisplay:10.37,2013-05-09 18:24:00,
2013-05-09 13:29:00,51.5,48.7,30.12,NE,42,6.8,11.5,90,0.00,-RA,,0.16,255.0,WeatherDisplay:10.37,2013-05-09 18:29:00,
2013-05-09 13:34:00,51.8,49.0,30.12,North,360,3.4,5.0,90,0.00,-RA,,0.16,200.0,WeatherDisplay:10.37,2013-05-09 18:34:00,
2013-05-09 13:39:00,52.0,49.2,30.12,North,355,2.5,6.0,90,0.00,-RA,,0.16,171.0,WeatherDisplay:10.37,2013-05-09 18:39:00,
2013-05-09 13:44:00,52.2,49.4,30.12,NNE,17,4.2,6.0,90,0.00,-RA,,0.16,278.0,WeatherDisplay:10.37,2013-05-09 18:44:00,
2013-05-09 13:49:00,52.6,49.8,30.12,NE,51,5.4,9.2,90,0.00,-RA,,0.16,285.0,WeatherDisplay:10.37,2013-05-09 18:49:00,
2013-05-09 13:54:00,52.9,49.4,30.12,NE,38,5.2,8.1,88,0.00,-RA,,0.16,278.0,WeatherDisplay:10.37,2013-05-09 18:54:00,
2013-05-09 13:59:00,53.2,49.4,30.12,NNE,12,6.8,12.0,87,0.00,-RA,,0.16,283.0,WeatherDisplay:10.37,2013-05-09 18:59:00,
2013-05-09 14:04:00,53.3,49.5,30.12,North,11,4.6,9.2,87,0.00,-RA,,0.16,262.0,WeatherDisplay:10.37,2013-05-09 19:04:00,
2013-05-09 14:09:00,53.5,49.7,30.12,ENE,57,2.8,9.2,87,0.00,OVC,,0.16,229.0,WeatherDisplay:10.37,2013-05-09 19:09:00,
2013-05-09 14:14:00,53.6,49.5,30.12,North,360,3.6,8.1,86,0.00,OVC,,0.16,232.0,WeatherDisplay:10.37,2013-05-09 19:14:00,
2013-05-09 14:19:00,53.8,49.7,30.11,NE,55,5.1,9.2,86,0.00,OVC,,0.16,227.0,WeatherDisplay:10.37,2013-05-09 19:19:00,
2013-05-09 14:24:00,54.0,49.9,30.12,ENE,69,4.0,8.1,86,0.00,OVC,,0.16,260.0,WeatherDisplay:10.37,2013-05-09 19:24:00,
2013-05-09 14:29:00,54.3,49.9,30.12,NNE,22,2.7,5.0,85,0.00,OVC,,0.16,204.0,WeatherDisplay:10.37,2013-05-09 19:29:00,
2013-05-09 14:34:00,54.6,49.9,30.12,NE,43,7.1,10.4,84,0.00,OVC,,0.16,211.0,WeatherDisplay:10.37,2013-05-09 19:34:00,
2013-05-09 14:39:00,54.8,49.4,30.12,NNE,19,3.2,5.8,82,0.00,OVC,,0.16,279.0,WeatherDisplay:10.37,2013-05-09 19:39:00,
2013-05-09 14:44:00,54.9,49.5,30.12,NNW,348,1.6,4.6,82,0.00,OVC,,0.16,225.0,WeatherDisplay:10.37,2013-05-09 19:44:00,
2013-05-09 14:49:00,54.9,48.8,30.12,ENE,63,8.2,12.0,80,0.00,OVC,,0.16,195.0,WeatherDisplay:10.37,2013-05-09 19:49:00,
2013-05-09 14:54:00,54.9,49.2,30.12,NNE,21,3.1,5.0,81,0.00,OVC,,0.16,162.0,WeatherDisplay:10.37,2013-05-09 19:54:00,
2013-05-09 14:59:00,55.0,48.9,30.12,NNE,17,6.1,8.1,80,0.00,OVC,,0.16,183.0,WeatherDisplay:10.37,2013-05-09 19:59:00,
2013-05-09 15:04:00,55.1,48.7,30.11,North,360,3.3,6.0,79,0.00,OVC,,0.16,234.0,WeatherDisplay:10.37,2013-05-09 20:04:00,
2013-05-09 15:09:00,55.3,48.9,30.11,ENE,59,2.9,8.1,79,0.00,OVC,,0.16,211.0,WeatherDisplay:10.37,2013-05-09 20:09:00,
2013-05-09 15:14:00,55.4,49.0,30.11,ENE,69,3.3,6.0,79,0.00,OVC,,0.16,195.0,WeatherDisplay:10.37,2013-05-09 20:14:00,
2013-05-09 15:19:00,55.5,49.8,30.11,ENE,65,3.8,7.0,81,0.00,OVC,,0.16,185.0,WeatherDisplay:10.37,2013-05-09 20:19:00,
2013-05-09 15:24:00,55.5,48.4,30.11,NNE,22,4.4,8.1,77,0.00,OVC,,0.16,197.0,WeatherDisplay:10.37,2013-05-09 20:24:00,
2013-05-09 15:29:00,55.4,49.0,30.11,NNE,27,2.1,5.0,79,0.00,OVC,,0.16,188.0,WeatherDisplay:10.37,2013-05-09 20:29:00,
2013-05-09 15:34:00,55.5,48.8,30.11,NNE,15,7.2,13.0,78,0.00,OVC,,0.16,202.0,WeatherDisplay:10.37,2013-05-09 20:34:00,
2013-05-09 15:39:00,55.5,49.1,30.11,NE,37,2.3,8.0,79,0.00,OVC,,0.16,167.0,WeatherDisplay:10.37,2013-05-09 20:39:00,
2013-05-09 15:44:00,55.3,48.2,30.12,NNW,335,7.1,11.5,77,0.00,OVC,,0.16,148.0,WeatherDisplay:10.37,2013-05-09 20:44:00,
2013-05-09 15:49:00,54.8,47.4,30.12,NNE,18,6.1,9.0,76,0.00,OVC,,0.16,135.0,WeatherDisplay:10.37,2013-05-09 20:49:00,
2013-05-09 15:54:00,54.6,47.2,30.12,ENE,58,7.7,12.0,76,0.00,OVC,,0.16,134.0,WeatherDisplay:10.37,2013-05-09 20:54:00,
2013-05-09 15:59:00,54.4,47.0,30.12,North,5,6.3,12.0,76,0.00,OVC,,0.16,160.0,WeatherDisplay:10.37,2013-05-09 20:59:00,
2013-05-09 16:04:00,54.1,46.3,30.12,East,84,7.8,14.0,75,0.00,OVC,,0.16,190.0,WeatherDisplay:10.37,2013-05-09 21:04:00,
2013-05-09 16:09:00,54.0,46.6,30.12,NNE,17,6.0,10.4,76,0.00,OVC,,0.16,165.0,WeatherDisplay:10.37,2013-05-09 21:09:00,
2013-05-09 16:14:00,54.1,47.0,30.12,NW,317,2.5,6.9,77,0.00,OVC,,0.16,181.0,WeatherDisplay:10.37,2013-05-09 21:14:00,
2013-05-09 16:19:00,54.1,46.7,30.12,NNW,338,7.6,13.0,76,0.00,OVC,,0.16,200.0,WeatherDisplay:10.37,2013-05-09 21:19:00,
2013-05-09 16:24:00,54.0,46.6,30.12,NE,53,6.9,15.0,76,0.00,OVC,,0.16,197.0,WeatherDisplay:10.37,2013-05-09 21:24:00,
2013-05-09 16:29:00,53.7,46.3,30.12,NE,44,7.9,13.0,76,0.00,OVC,,0.16,174.0,WeatherDisplay:10.37,2013-05-09 21:29:00,
2013-05-09 16:34:00,53.3,46.3,30.12,NE,36,3.2,8.0,77,0.00,OVC,,0.16,188.0,WeatherDisplay:10.37,2013-05-09 21:34:00,
2013-05-09 16:39:00,53.0,45.6,30.13,ENE,63,5.0,9.2,76,0.00,OVC,,0.16,169.0,WeatherDisplay:10.37,2013-05-09 21:39:00,
2013-05-09 16:44:00,52.5,44.8,30.13,North,355,8.4,13.0,75,0.00,OVC,,0.16,142.0,WeatherDisplay:10.37,2013-05-09 21:44:00,
2013-05-09 16:49:00,52.2,44.9,30.13,North,5,5.0,10.4,76,0.00,OVC,,0.16,149.0,WeatherDisplay:10.37,2013-05-09 21:49:00,
2013-05-09 16:54:00,52.1,44.8,30.13,NE,36,6.7,17.3,76,0.00,OVC,,0.16,141.0,WeatherDisplay:10.37,2013-05-09 21:54:00,
2013-05-09 16:59:00,51.8,44.8,30.12,ENE,61,3.0,9.2,77,0.00,OVC,,0.16,148.0,WeatherDisplay:10.37,2013-05-09 21:59:00,
2013-05-09 17:04:00,51.8,45.2,30.13,NE,40,3.8,8.0,78,0.00,OVC,,0.16,151.0,WeatherDisplay:10.37,2013-05-09 22:04:00,
2013-05-09 17:09:00,51.9,45.3,30.13,North,355,1.9,9.2,78,0.00,OVC,,0.16,167.0,WeatherDisplay:10.37,2013-05-09 22:09:00,
2013-05-09 17:14:00,51.9,44.9,30.13,North,5,6.5,10.0,77,0.00,OVC,,0.16,190.0,WeatherDisplay:10.37,2013-05-09 22:14:00,
2013-05-09 17:19:00,51.8,44.5,30.13,NNE,22,6.9,10.4,76,0.00,OVC,,0.16,236.0,WeatherDisplay:10.37,2013-05-09 22:19:00,
2013-05-09 17:24:00,51.8,43.8,30.13,NE,40,6.5,15.0,74,0.00,OVC,,0.16,237.0,WeatherDisplay:10.37,2013-05-09 22:24:00,
2013-05-09 17:29:00,51.6,43.9,30.13,NNE,33,7.6,13.0,75,0.00,OVC,,0.16,304.0,WeatherDisplay:10.37,2013-05-09 22:29:00,
2013-05-09 17:34:00,51.6,43.9,30.13,NNE,33,5.1,7.0,75,0.00,OVC,,0.16,330.0,WeatherDisplay:10.37,2013-05-09 22:34:00,
2013-05-09 17:39:00,52.0,44.7,30.13,NNE,16,4.8,9.0,76,0.00,OVC,,0.16,381.0,WeatherDisplay:10.37,2013-05-09 22:39:00,
2013-05-09 17:45:00,52.5,44.8,30.13,NNE,19,3.0,8.0,75,0.00,OVC,OVC,0.16,313.0,WeatherDisplay:10.37,2013-05-09 22:45:00,
2013-05-09 17:50:00,52.6,44.5,30.13,NE,37,6.0,12.0,74,0.00,OVC,OVC,0.16,302.0,WeatherDisplay:10.37,2013-05-09 22:50:00,
2013-05-09 17:55:00,52.4,44.0,30.13,NE,38,8.0,14.0,73,0.00,OVC,OVC,0.16,271.0,WeatherDisplay:10.37,2013-05-09 22:55:00,
2013-05-09 18:00:00,52.5,44.4,30.13,NNE,32,8.0,12.0,74,0.00,OVC,OVC,0.16,255.0,WeatherDisplay:10.37,2013-05-09 23:00:00,
2013-05-09 18:05:00,52.4,44.0,30.13,NNE,29,7.0,15.0,73,0.00,OVC,OVC,0.16,225.0,WeatherDisplay:10.37,2013-05-09 23:05:00,
2013-05-09 18:10:00,52.3,43.9,30.13,NNE,26,6.0,10.0,73,0.00,OVC,OVC,0.16,169.0,WeatherDisplay:10.37,2013-05-09 23:10:00,
2013-05-09 18:15:00,52.1,44.0,30.14,NNE,28,5.0,8.0,74,0.00,OVC,OVC,0.16,162.0,WeatherDisplay:10.37,2013-05-09 23:15:00,
2013-05-09 18:20:00,51.8,43.4,30.14,NNE,23,6.0,12.0,73,0.00,OVC,OVC,0.16,163.0,WeatherDisplay:10.37,2013-05-09 23:20:00,
2013-05-09 18:25:00,51.7,43.3,30.14,NE,44,9.0,14.0,73,0.00,OVC,OVC,0.16,149.0,WeatherDisplay:10.37,2013-05-09 23:25:00,
2013-05-09 18:30:00,51.2,42.5,30.14,NE,40,6.0,12.0,72,0.00,OVC,OVC,0.16,137.0,WeatherDisplay:10.37,2013-05-09 23:30:00,
2013-05-09 18:35:00,50.7,42.0,30.14,NE,36,8.0,17.0,72,0.00,OVC,OVC,0.16,134.0,WeatherDisplay:10.37,2013-05-09 23:35:00,
2013-05-09 18:40:00,50.4,41.7,30.14,NE,45,8.0,16.0,72,0.00,OVC,OVC,0.16,132.0,WeatherDisplay:10.37,2013-05-09 23:40:00,
2013-05-09 18:45:00,50.3,41.9,30.14,NE,42,7.0,12.0,73,0.00,OVC,OVC,0.16,120.0,WeatherDisplay:10.37,2013-05-09 23:45:00,
2013-05-09 18:50:00,50.1,41.8,30.15,NNE,31,8.0,18.0,73,0.00,OVC,OVC,0.16,121.0,WeatherDisplay:10.37,2013-05-09 23:50:00,
2013-05-09 18:55:00,50.1,41.4,30.14,NE,37,8.0,15.0,72,0.00,OVC,OVC,0.16,125.0,WeatherDisplay:10.37,2013-05-09 23:55:00,
2013-05-09 19:00:00,50.0,41.7,30.14,NNE,33,6.0,18.0,73,0.00,OVC,OVC,0.16,113.0,WeatherDisplay:10.37,2013-05-10 00:00:00,
2013-05-09 19:05:00,50.1,41.8,30.15,NNE,29,6.0,12.0,73,0.00,OVC,OVC,0.16,113.0,WeatherDisplay:10.37,2013-05-10 00:05:00,
2013-05-09 19:10:00,50.1,41.8,30.15,NNE,18,5.0,10.0,73,0.00,OVC,OVC,0.16,109.0,WeatherDisplay:10.37,2013-05-10 00:10:00,
2013-05-09 19:15:00,50.3,42.0,30.15,NNE,25,2.0,10.0,73,0.00,OVC,OVC,0.16,128.0,WeatherDisplay:10.37,2013-05-10 00:15:00,
2013-05-09 19:20:00,50.4,42.1,30.15,NNE,30,5.0,10.0,73,0.00,OVC,OVC,0.16,134.0,WeatherDisplay:10.37,2013-05-10 00:20:00,
2013-05-09 19:25:00,50.4,42.4,30.15,NNE,28,1.0,5.0,74,0.00,OVC,OVC,0.16,137.0,WeatherDisplay:10.37,2013-05-10 00:25:00,
2013-05-09 19:30:00,50.5,42.2,30.15,NE,47,2.0,7.0,73,0.00,OVC,OVC,0.16,90.0,WeatherDisplay:10.37,2013-05-10 00:30:00,
2013-05-09 19:35:00,50.4,41.3,30.15,ENE,63,7.0,12.0,71,0.00,OVC,OVC,0.16,84.0,WeatherDisplay:10.37,2013-05-10 00:35:00,
2013-05-09 19:40:00,50.0,40.6,30.16,NE,38,6.0,14.0,70,0.00,OVC,OVC,0.16,84.0,WeatherDisplay:10.37,2013-05-10 00:40:00,
2013-05-09 19:45:00,49.8,40.0,30.16,NNE,25,6.8,11.5,69,0.00,OVC,,0.16,74.0,WeatherDisplay:10.37,2013-05-10 00:45:00,
2013-05-09 19:50:00,49.5,39.7,30.16,NE,54,5.0,12.0,69,0.00,OVC,OVC,0.16,60.0,WeatherDisplay:10.37,2013-05-10 00:50:00,
2013-05-09 19:55:00,49.4,39.6,30.16,NE,45,3.0,9.0,69,0.00,OVC,OVC,0.16,46.0,WeatherDisplay:10.37,2013-05-10 00:55:00,
2013-05-09 20:00:00,49.3,39.6,30.16,NNE,30,2.0,9.0,69,0.00,OVC,OVC,0.16,33.0,WeatherDisplay:10.37,2013-05-10 01:00:00,
2013-05-09 20:05:00,49.1,39.3,30.16,NE,37,5.0,10.0,69,0.00,OVC,OVC,0.16,28.0,WeatherDisplay:10.37,2013-05-10 01:05:00,
2013-05-09 20:10:00,48.8,39.1,30.17,NE,40,3.0,10.0,69,0.00,OVC,OVC,0.16,25.0,WeatherDisplay:10.37,2013-05-10 01:10:00,
2013-05-09 20:15:00,48.6,38.9,30.16,NNE,33,6.0,8.0,69,0.00,OVC,OVC,0.16,18.0,WeatherDisplay:10.37,2013-05-10 01:15:00,
2013-05-09 20:20:00,48.4,38.7,30.16,NE,36,2.0,7.0,69,0.00,OVC,OVC,0.16,12.0,WeatherDisplay:10.37,2013-05-10 01:20:00,
2013-05-09 20:25:00,48.2,38.5,30.16,NNE,24,2.0,7.0,69,0.00,OVC,OVC,0.16,9.0,WeatherDisplay:10.37,2013-05-10 01:25:00,
2013-05-09 20:30:00,48.1,38.4,30.16,NNE,26,5.0,8.0,69,0.00,OVC,OVC,0.16,5.0,WeatherDisplay:10.37,2013-05-10 01:30:00,
2013-05-09 20:35:00,47.9,38.6,30.16,NNE,26,1.0,7.0,70,0.00,OVC,OVC,0.16,0.0,WeatherDisplay:10.37,2013-05-10 01:35:00,
2013-05-09 20:40:00,47.8,38.5,30.16,NNE,19,2.9,5.0,70,0.00,OVC,,0.16,0.0,WeatherDisplay:10.37,2013-05-10 01:40:00,
2013-05-09 20:45:00,47.8,38.8,30.16,NNE,32,2.0,6.0,71,0.00,OVC,OVC,0.16,0.0,WeatherDisplay:10.37,2013-05-10 01:45:00,
2013-05-09 20:50:00,47.6,38.3,30.16,NE,36,1.0,8.0,70,0.00,OVC,OVC,0.16,0.0,WeatherDisplay:10.37,2013-05-10 01:50:00,
2013-05-09 20:55:00,47.5,38.6,30.17,NE,40,2.0,5.0,71,0.00,OVC,OVC,0.16,0.0,WeatherDisplay:10.37,2013-05-10 01:55:00,
2013-05-09 21:00:00,47.5,38.6,30.17,NNE,32,3.0,6.0,71,0.00,OVC,OVC,0.16,0.0,WeatherDisplay:10.37,2013-05-10 02:00:00,
2013-05-09 21:05:00,47.6,38.3,30.17,NNE,23,1.0,6.0,70,0.00,OVC,OVC,0.16,0.0,WeatherDisplay:10.37,2013-05-10 02:05:00,
2013-05-09 21:10:00,47.5,38.2,30.17,NNE,33,5.0,10.0,70,0.00,OVC,OVC,0.16,0.0,WeatherDisplay:10.37,2013-05-10 02:10:00,
2013-05-09 21:15:00,47.4,38.1,30.17,NE,39,2.0,7.0,70,0.00,OVC,OVC,0.16,0.0,WeatherDisplay:10.37,2013-05-10 02:15:00,
2013-05-09 21:20:00,47.5,37.8,30.17,NE,53,3.9,5.8,69,0.00,OVC,,0.16,0.0,WeatherDisplay:10.37,2013-05-10 02:20:00,
2013-05-09 21:25:00,47.6,38.3,30.17,NNE,33,1.0,6.0,70,0.00,OVC,OVC,0.16,0.0,WeatherDisplay:10.37,2013-05-10 02:25:00,
2013-05-09 21:30:00,47.6,38.3,30.17,NNE,28,2.0,5.0,70,0.00,OVC,OVC,0.16,0.0,WeatherDisplay:10.37,2013-05-10 02:30:00,
2013-05-09 21:35:00,47.5,38.2,30.17,NNE,29,1.0,5.0,70,0.00,OVC,OVC,0.16,0.0,WeatherDisplay:10.37,2013-05-10 02:35:00,
2013-05-09 21:40:00,47.4,38.1,30.17,NNE,23,1.0,6.0,70,0.00,OVC,OVC,0.16,0.0,WeatherDisplay:10.37,2013-05-10 02:40:00,
2013-05-09 21:45:00,47.3,38.0,30.17,NNE,27,1.0,5.0,70,0.00,OVC,OVC,0.16,0.0,WeatherDisplay:10.37,2013-05-10 02:45:00,
2013-05-09 21:50:00,47.3,38.0,30.18,NE,39,2.0,5.0,70,0.00,OVC,OVC,0.16,0.0,WeatherDisplay:10.37,2013-05-10 02:50:00,
2013-05-09 21:55:00,47.3,38.0,30.18,NNE,24,2.0,4.0,70,0.00,OVC,OVC,0.16,0.0,WeatherDisplay:10.37,2013-05-10 02:55:00,
2013-05-09 22:00:00,47.3,38.0,30.18,NNE,29,2.0,8.0,70,0.00,OVC,OVC,0.16,0.0,WeatherDisplay:10.37,2013-05-10 03:00:00,
2013-05-09 22:05:00,47.1,38.2,30.18,NE,44,2.0,8.0,71,0.00,OVC,OVC,0.16,0.0,WeatherDisplay:10.37,2013-05-10 03:05:00,
2013-05-09 22:10:00,47.1,38.2,30.18,NE,34,1.0,5.0,71,0.00,OVC,OVC,0.16,0.0,WeatherDisplay:10.37,2013-05-10 03:10:00,
2013-05-09 22:15:00,47.2,38.3,30.18,NNE,17,1.0,8.0,71,0.00,OVC,OVC,0.16,0.0,WeatherDisplay:10.37,2013-05-10 03:15:00,
2013-05-09 22:20:00,47.1,38.2,30.18,NNE,14,0.0,4.0,71,0.00,OVC,OVC,0.16,0.0,WeatherDisplay:10.37,2013-05-10 03:20:00,
2013-05-09 22:25:00,47.0,38.4,30.18,NNE,25,0.0,4.0,72,0.00,OVC,OVC,0.16,0.0,WeatherDisplay:10.37,2013-05-10 03:25:00,
2013-05-09 22:30:00,47.0,38.1,30.18,NNE,27,2.0,6.0,71,0.00,OVC,OVC,0.16,0.0,WeatherDisplay:10.37,2013-05-10 03:30:00,
2013-05-09 22:35:00,47.0,38.1,30.18,NNE,29,3.0,7.0,71,0.00,OVC,OVC,0.16,0.0,WeatherDisplay:10.37,2013-05-10 03:35:00,
2013-05-09 22:40:00,46.7,38.1,30.18,NNE,28,1.0,4.0,72,0.00,OVC,OVC,0.16,0.0,WeatherDisplay:10.37,2013-05-10 03:40:00,
2013-05-09 22:45:00,46.6,38.1,30.18,NNE,17,1.0,3.0,72,0.00,OVC,OVC,0.16,0.0,WeatherDisplay:10.37,2013-05-10 03:45:00,
2013-05-09 22:50:00,46.5,38.0,30.18,NE,36,3.7,6.0,72,0.00,OVC,,0.16,0.0,WeatherDisplay:10.37,2013-05-10 03:50:00,
2013-05-09 22:55:00,46.4,37.9,30.18,NNE,22,1.8,3.5,72,0.00,OVC,,0.16,0.0,WeatherDisplay:10.37,2013-05-10 03:55:00,
2013-05-09 23:00:00,46.1,37.6,30.18,North,11,2.0,5.0,72,0.00,OVC,OVC,0.16,0.0,WeatherDisplay:10.37,2013-05-10 04:00:00,
2013-05-09 23:01:00,46.1,37.6,30.18,NNE,15,2.7,4.0,72,0.00,OVC,,0.16,0.0,WeatherDisplay:10.37,2013-05-10 04:01:00,
2013-05-09 23:03:00,46.1,37.6,30.18,North,11,0.8,3.5,72,0.00,OVC,,0.16,0.0,WeatherDisplay:10.37,2013-05-10 04:03:00,
2013-05-09 23:04:00,46.1,37.9,30.18,NNE,21,1.6,3.5,73,0.00,OVC,,0.16,0.0,WeatherDisplay:10.37,2013-05-10 04:04:00,
2013-05-09 23:05:00,46.1,37.6,30.18,NNE,17,2.0,3.0,72,0.00,OVC,OVC,0.16,0.0,WeatherDisplay:10.37,2013-05-10 04:05:00,
2013-05-09 23:10:00,46.0,37.5,30.18,NNE,12,1.0,4.0,72,0.00,OVC,OVC,0.16,0.0,WeatherDisplay:10.37,2013-05-10 04:10:00,
2013-05-09 23:15:00,45.8,37.7,30.18,North,10,2.0,4.0,73,0.00,OVC,OVC,0.16,0.0,WeatherDisplay:10.37,2013-05-10 04:15:00,
2013-05-09 23:20:00,45.7,37.9,30.19,NNE,13,2.0,8.0,74,0.00,OVC,OVC,0.16,0.0,WeatherDisplay:10.37,2013-05-10 04:20:00,
2013-05-09 23:25:00,45.6,37.4,30.19,NNE,25,3.0,8.0,73,0.00,OVC,OVC,0.16,0.0,WeatherDisplay:10.37,2013-05-10 04:25:00,
2013-05-09 23:30:00,45.6,37.1,30.18,NNE,20,2.0,3.5,72,0.00,OVC,,0.16,0.0,WeatherDisplay:10.37,2013-05-10 04:30:00,
2013-05-09 23:35:00,45.4,36.9,30.18,NNE,21,2.0,6.0,72,0.00,OVC,OVC,0.16,0.0,WeatherDisplay:10.37,2013-05-10 04:35:00,
2013-05-09 23:40:00,45.1,36.9,30.18,NNE,28,2.0,4.0,73,0.00,OVC,OVC,0.16,0.0,WeatherDisplay:10.37,2013-05-10 04:40:00,
2013-05-09 23:45:00,44.9,36.8,30.18,NNE,24,2.0,6.0,73,0.00,OVC,OVC,0.16,0.0,WeatherDisplay:10.37,2013-05-10 04:45:00,
2013-05-09 23:50:00,44.7,36.5,30.19,NNE,17,3.0,7.0,73,0.00,OVC,OVC,0.16,0.0,WeatherDisplay:10.37,2013-05-10 04:50:00,
2013-05-09 23:55:00,44.5,36.4,30.19,NNE,25,2.0,7.0,73,0.00,OVC,OVC,0.16,0.0,WeatherDisplay:10.37,2013-05-10 04:55:00,